Time;durP1;ratioP1;P1;durP2;ratioP2;P2;SDS_P1;SDS_P2;PMS_P1;PMS_P2;Temp;Humidity;BMP_temperature;BMP_pressure;BME280_temperature;BME280_humidity;BME280_pressure;Samples;Min_cycle;Max_cycle;Signal;HPM_P1;HPM_P2
2022/09/16 00:00:34;;;;;;;;;;;11.90;99.90;;;;;;5107639;28;19994;-58
2022/09/16 00:03:02;;;;;;;;;;;11.80;99.90;;;;;;5108105;28;19958;-61
2022/09/16 00:05:29;;;;;;;;;;;11.80;99.90;;;;;;5098748;28;19928;-58
2022/09/16 00:07:57;;;;;;;;;;;11.70;99.90;;;;;;5087560;28;19924;-57
2022/09/16 00:10:24;;;;;;;;;;;11.70;99.90;;;;;;5109574;28;20272;-58
2022/09/16 00:12:51;;;;;;;;;;;11.60;99.90;;;;;;5109996;27;19923;-58
2022/09/16 00:15:19;;;;;;;;;;;11.60;99.90;;;;;;5111838;27;19931;-58
2022/09/16 00:17:48;;;;;;;;;;;11.60;99.90;;;;;;5107469;28;19924;-58
2022/09/16 00:20:15;;;;;;;;;;;11.60;99.90;;;;;;5096940;28;19928;-61
2022/09/16 00:22:46;;;;;;;;;;;11.60;99.90;;;;;;5104369;28;19931;-60
2022/09/16 00:25:22;;;;;;;;;;;11.60;99.90;;;;;;5101140;28;20003;-58
2022/09/16 00:27:50;;;;;;;;;;;11.60;99.90;;;;;;5108345;28;19924;-62
2022/09/16 00:30:17;;;;;;;;;;;11.60;99.90;;;;;;5106728;28;19933;-61
2022/09/16 00:32:44;;;;;;;;;;;11.60;99.90;;;;;;5114522;27;20311;-58
2022/09/16 00:35:12;;;;;;;;;;;11.60;99.90;;;;;;5107327;27;19931;-59
2022/09/16 00:37:39;;;;;;;;;;;11.60;99.90;;;;;;5108141;28;19931;-60
2022/09/16 00:40:06;;;;;;;;;;;11.60;99.90;;;;;;5107122;28;20375;-59
2022/09/16 00:42:38;;;;;;;;;;;11.70;99.90;;;;;;5090736;28;19933;-58
2022/09/16 00:45:14;;;;;;;;;;;11.70;99.90;;;;;;5102310;28;20700;-57
2022/09/16 00:47:48;;;;;;;;;;;11.70;99.90;;;;;;5089273;28;19928;-60
2022/09/16 00:50:21;;;;;;;;;;;11.70;99.90;;;;;;5096825;28;19924;-62
2022/09/16 00:52:49;;;;;;;;;;;11.70;99.90;;;;;;5088854;28;20231;-62
2022/09/16 00:55:19;;;;;;;;;;;11.70;99.90;;;;;;5125311;28;19940;-62
2022/09/16 00:57:46;;;;;;;;;;;11.70;99.90;;;;;;5107412;28;20290;-62
2022/09/16 01:00:14;;;;;;;;;;;11.60;99.90;;;;;;5106184;28;20199;-61
2022/09/16 01:02:43;;;;;;;;;;;11.60;99.90;;;;;;5111676;28;20426;-61
2022/09/16 01:05:12;;;;;;;;;;;11.70;99.90;;;;;;5097833;28;19924;-60
2022/09/16 01:07:48;;;;;;;;;;;11.60;99.90;;;;;;5080988;28;19936;-62
2022/09/16 01:10:17;;;;;;;;;;;11.60;99.90;;;;;;5108157;28;20118;-63
2022/09/16 01:12:46;;;;;;;;;;;11.60;99.90;;;;;;5108647;28;20383;-61
2022/09/16 01:15:14;;;;;;;;;;;11.60;99.90;;;;;;5106904;28;19927;-62
2022/09/16 01:17:48;;;;;;;;;;;11.60;99.90;;;;;;5090089;28;19928;-62
2022/09/16 01:20:18;;;;;;;;;;;11.60;99.90;;;;;;5099774;28;19932;-62
2022/09/16 01:22:46;;;;;;;;;;;11.60;99.90;;;;;;5106392;28;19934;-61
2022/09/16 01:25:19;;;;;;;;;;;11.60;99.90;;;;;;5120715;28;19930;-61
2022/09/16 01:27:46;;;;;;;;;;;11.70;99.90;;;;;;5108424;28;19924;-62
2022/09/16 01:30:17;;;;;;;;;;;11.60;99.90;;;;;;5106088;28;19928;-60
2022/09/16 01:33:04;;;;;;;;;;;11.70;99.90;;;;;;5114026;28;20367;-57
2022/09/16 01:35:50;;;;;;;;;;;11.70;99.90;;;;;;5108792;28;20396;-58
2022/09/16 01:38:20;;;;;;;;;;;11.70;99.90;;;;;;5110711;28;19924;-61
2022/09/16 01:40:47;;;;;;;;;;;11.70;99.90;;;;;;5109226;28;19927;-59
2022/09/16 01:43:27;;;;;;;;;;;11.70;99.90;;;;;;5109776;28;19927;-57
2022/09/16 01:45:56;;;;;;;;;;;11.60;99.90;;;;;;5112342;28;19924;-59
2022/09/16 01:48:32;;;;;;;;;;;11.60;99.90;;;;;;5112430;28;20370;-61
2022/09/16 01:51:23;;;;;;;;;;;11.60;99.90;;;;;;5114696;28;19924;-58
2022/09/16 01:53:53;;;;;;;;;;;11.60;99.90;;;;;;5102046;28;19932;-60
2022/09/16 01:56:23;;;;;;;;;;;11.60;99.90;;;;;;5114173;28;19923;-60
2022/09/16 01:58:55;;;;;;;;;;;11.50;99.90;;;;;;5112937;28;19931;-62
2022/09/16 02:01:28;;;;;;;;;;;11.50;99.90;;;;;;5113376;28;20287;-57
2022/09/16 02:04:01;;;;;;;;;;;11.50;99.90;;;;;;5114795;27;19930;-57
2022/09/16 02:06:29;;;;;;;;;;;11.50;99.90;;;;;;5112447;28;19923;-58
2022/09/16 02:09:05;;;;;;;;;;;11.50;99.90;;;;;;5115072;28;19928;-57
2022/09/16 02:11:34;;;;;;;;;;;11.50;99.90;;;;;;5111961;28;20299;-56
2022/09/16 02:14:04;;;;;;;;;;;11.50;99.90;;;;;;5112988;28;19923;-61
2022/09/16 02:16:34;;;;;;;;;;;11.50;99.90;;;;;;5113245;28;19924;-57
2022/09/16 02:19:05;;;;;;;;;;;11.50;99.90;;;;;;5114931;28;20399;-59
2022/09/16 02:21:35;;;;;;;;;;;11.50;99.90;;;;;;5095635;28;19923;-58
2022/09/16 02:24:05;;;;;;;;;;;11.40;99.90;;;;;;5112856;28;20299;-61
2022/09/16 02:26:35;;;;;;;;;;;11.50;99.90;;;;;;5112949;28;19924;-57
2022/09/16 02:29:07;;;;;;;;;;;11.40;99.90;;;;;;5112818;28;19923;-58
2022/09/16 02:31:36;;;;;;;;;;;11.40;99.90;;;;;;5113871;28;19923;-59
2022/09/16 02:34:15;;;;;;;;;;;11.40;99.90;;;;;;5096834;28;20290;-62
2022/09/16 02:36:44;;;;;;;;;;;11.40;99.90;;;;;;5113311;28;19946;-61
2022/09/16 02:39:15;;;;;;;;;;;11.40;99.90;;;;;;5113745;28;19938;-57
2022/09/16 02:41:42;;;;;;;;;;;11.40;99.90;;;;;;5113915;28;20396;-58
2022/09/16 02:44:10;;;;;;;;;;;11.40;99.90;;;;;;5114567;28;19980;-57
2022/09/16 02:46:42;;;;;;;;;;;11.30;99.90;;;;;;5114082;28;19928;-58
2022/09/16 02:49:13;;;;;;;;;;;11.30;99.90;;;;;;5112908;28;20371;-61
2022/09/16 02:51:45;;;;;;;;;;;11.30;99.90;;;;;;5111798;28;19931;-60
2022/09/16 02:54:32;;;;;;;;;;;11.20;99.90;;;;;;5112640;28;19924;-61
2022/09/16 02:57:00;;;;;;;;;;;11.20;99.90;;;;;;5110360;28;19931;-61
2022/09/16 02:59:27;;;;;;;;;;;11.20;99.90;;;;;;5113081;28;19924;-61
2022/09/16 03:01:54;;;;;;;;;;;11.10;99.90;;;;;;5113667;27;19923;-58
2022/09/16 03:04:22;;;;;;;;;;;11.10;99.90;;;;;;5112285;27;19924;-61
2022/09/16 03:06:49;;;;;;;;;;;11.10;99.90;;;;;;5112505;28;19924;-61
2022/09/16 03:09:17;;;;;;;;;;;11.00;99.90;;;;;;5112668;28;19924;-61
2022/09/16 03:12:05;;;;;;;;;;;10.90;99.90;;;;;;5112527;28;19935;-60
2022/09/16 03:14:32;;;;;;;;;;;10.90;99.90;;;;;;5082654;28;19924;-61
2022/09/16 03:17:11;;;;;;;;;;;10.80;99.90;;;;;;5113921;28;19924;-61
2022/09/16 03:19:58;;;;;;;;;;;10.70;99.90;;;;;;5113169;28;19923;-61
2022/09/16 03:22:25;;;;;;;;;;;10.70;99.90;;;;;;5111534;28;19924;-61
2022/09/16 03:24:59;;;;;;;;;;;10.60;99.90;;;;;;5113665;28;19931;-62
2022/09/16 03:27:46;;;;;;;;;;;10.60;99.90;;;;;;5112357;28;19943;-61
2022/09/16 03:30:14;;;;;;;;;;;10.50;99.90;;;;;;5111558;28;20422;-59
2022/09/16 03:32:56;;;;;;;;;;;10.50;99.90;;;;;;5118414;27;19924;-62
2022/09/16 03:35:29;;;;;;;;;;;10.40;99.90;;;;;;5101542;28;20296;-61
2022/09/16 03:37:58;;;;;;;;;;;10.40;99.90;;;;;;5111696;28;20291;-62
2022/09/16 03:40:28;;;;;;;;;;;10.30;99.90;;;;;;5112560;28;19923;-61
2022/09/16 03:42:56;;;;;;;;;;;10.20;99.90;;;;;;5112454;28;19924;-61
2022/09/16 03:45:24;;;;;;;;;;;10.10;99.90;;;;;;5111730;28;19931;-61
2022/09/16 03:47:51;;;;;;;;;;;10.10;99.90;;;;;;5109459;28;19924;-61
2022/09/16 03:50:20;;;;;;;;;;;10.00;99.90;;;;;;5113059;28;19924;-61
2022/09/16 03:52:47;;;;;;;;;;;9.90;99.90;;;;;;5113218;28;19931;-61
2022/09/16 03:55:15;;;;;;;;;;;9.90;99.90;;;;;;5112986;28;20322;-61
2022/09/16 03:57:43;;;;;;;;;;;9.80;99.90;;;;;;5095111;28;19931;-59
2022/09/16 04:00:10;;;;;;;;;;;9.80;99.90;;;;;;5113132;28;19930;-59
2022/09/16 04:02:38;;;;;;;;;;;9.70;99.90;;;;;;5119693;27;19930;-61
2022/09/16 04:05:07;;;;;;;;;;;9.70;99.90;;;;;;5133612;27;20295;-62
2022/09/16 04:07:37;;;;;;;;;;;9.70;99.90;;;;;;5133696;27;19946;-61
2022/09/16 04:10:05;;;;;;;;;;;9.60;99.90;;;;;;5133522;27;19931;-62
2022/09/16 04:12:32;;;;;;;;;;;9.60;99.90;;;;;;5133500;27;19931;-61
2022/09/16 04:15:00;;;;;;;;;;;9.60;99.90;;;;;;5133396;27;19923;-62
2022/09/16 04:17:30;;;;;;;;;;;9.60;99.90;;;;;;5133438;27;19930;-61
2022/09/16 04:19:57;;;;;;;;;;;9.50;99.90;;;;;;5133147;27;19931;-60
2022/09/16 04:22:29;;;;;;;;;;;9.50;99.90;;;;;;5133259;27;19930;-61
2022/09/16 04:24:56;;;;;;;;;;;9.50;99.90;;;;;;5133130;27;20279;-57
2022/09/16 04:27:24;;;;;;;;;;;9.50;99.90;;;;;;5133031;27;19923;-60
2022/09/16 04:29:51;;;;;;;;;;;9.50;99.90;;;;;;5115166;27;19923;-62
2022/09/16 04:32:18;;;;;;;;;;;9.50;99.90;;;;;;5133146;27;19974;-59
2022/09/16 04:34:46;;;;;;;;;;;9.60;99.90;;;;;;5133156;27;20374;-58
2022/09/16 04:37:13;;;;;;;;;;;9.50;99.90;;;;;;5133105;27;20298;-61
2022/09/16 04:39:40;;;;;;;;;;;9.50;99.90;;;;;;5133118;27;19923;-57
2022/09/16 04:42:11;;;;;;;;;;;9.50;99.90;;;;;;5132859;27;19927;-59
2022/09/16 04:44:38;;;;;;;;;;;9.40;99.90;;;;;;5133250;27;19923;-57
2022/09/16 04:47:05;;;;;;;;;;;9.40;99.90;;;;;;5128397;27;19930;-60
2022/09/16 04:49:33;;;;;;;;;;;9.40;99.90;;;;;;5106707;28;19924;-58
2022/09/16 04:52:00;;;;;;;;;;;9.30;99.90;;;;;;5108961;28;19928;-59
2022/09/16 04:54:28;;;;;;;;;;;9.30;99.90;;;;;;5109137;28;19934;-57
2022/09/16 04:56:56;;;;;;;;;;;9.30;99.90;;;;;;5109083;28;19931;-60
2022/09/16 04:59:23;;;;;;;;;;;9.30;99.90;;;;;;5088777;28;19931;-57
2022/09/16 05:01:51;;;;;;;;;;;9.30;99.90;;;;;;5088495;28;19928;-61
2022/09/16 05:04:19;;;;;;;;;;;9.20;99.90;;;;;;5082243;28;19928;-57
2022/09/16 05:06:47;;;;;;;;;;;9.20;99.90;;;;;;5085719;28;19928;-58
2022/09/16 05:09:15;;;;;;;;;;;9.10;99.90;;;;;;5103434;28;20370;-57
2022/09/16 05:11:42;;;;;;;;;;;9.10;99.90;;;;;;5106696;28;19924;-59
2022/09/16 05:14:12;;;;;;;;;;;9.10;99.90;;;;;;5108585;28;20318;-58
2022/09/16 05:16:40;;;;;;;;;;;9.10;99.90;;;;;;5108480;28;20374;-57
2022/09/16 05:19:09;;;;;;;;;;;9.10;99.90;;;;;;5097314;28;19932;-57
2022/09/16 05:21:37;;;;;;;;;;;9.10;99.90;;;;;;5093252;28;19953;-60
2022/09/16 05:24:08;;;;;;;;;;;9.10;99.90;;;;;;5111649;28;20152;-59
2022/09/16 05:26:37;;;;;;;;;;;8.80;99.90;;;;;;5112822;28;19930;-61
2022/09/16 05:29:06;;;;;;;;;;;9.00;99.90;;;;;;5112436;28;19923;-57
2022/09/16 05:31:34;;;;;;;;;;;9.00;99.90;;;;;;5111439;28;19923;-59
2022/09/16 05:34:03;;;;;;;;;;;8.80;99.90;;;;;;5084068;28;19924;-60
2022/09/16 05:36:32;;;;;;;;;;;8.90;99.90;;;;;;5109987;28;20726;-58
2022/09/16 05:39:00;;;;;;;;;;;8.90;99.90;;;;;;5111306;28;20472;-60
2022/09/16 05:41:48;;;;;;;;;;;8.90;99.90;;;;;;5112564;28;19931;-61
2022/09/16 05:44:16;;;;;;;;;;;8.80;99.90;;;;;;5096615;28;19924;-57
2022/09/16 05:46:43;;;;;;;;;;;8.80;99.90;;;;;;5092066;28;20376;-60
2022/09/16 05:49:11;;;;;;;;;;;8.80;99.90;;;;;;5096638;28;19935;-60
2022/09/16 05:51:40;;;;;;;;;;;8.70;99.90;;;;;;5073819;28;19924;-57
2022/09/16 05:54:07;;;;;;;;;;;8.70;99.90;;;;;;5115497;27;20112;-57
2022/09/16 05:56:35;;;;;;;;;;;8.70;99.90;;;;;;5094409;28;19931;-57
2022/09/16 05:59:02;;;;;;;;;;;8.70;99.90;;;;;;5111986;28;19946;-57
2022/09/16 06:01:31;;;;;;;;;;;8.60;99.90;;;;;;5075176;28;19928;-57
2022/09/16 06:04:03;;;;;;;;;;;8.60;99.90;;;;;;5107520;28;19923;-59
2022/09/16 06:06:32;;;;;;;;;;;8.60;99.90;;;;;;5091523;28;19931;-60
2022/09/16 06:09:03;;;;;;;;;;;8.60;99.90;;;;;;5110864;28;20291;-58
2022/09/16 06:11:30;;;;;;;;;;;8.70;99.90;;;;;;5111919;28;19934;-57
2022/09/16 06:13:59;;;;;;;;;;;8.70;99.90;;;;;;5093269;28;19923;-57
2022/09/16 06:16:27;;;;;;;;;;;8.80;99.90;;;;;;5111860;28;19931;-59
2022/09/16 06:18:56;;;;;;;;;;;8.90;99.90;;;;;;5096609;28;19924;-58
2022/09/16 06:21:23;;;;;;;;;;;8.90;99.90;;;;;;5091314;28;19924;-61
2022/09/16 06:23:52;;;;;;;;;;;9.00;99.90;;;;;;5089434;28;19939;-58
2022/09/16 06:26:20;;;;;;;;;;;9.10;99.90;;;;;;5093816;28;20272;-57
2022/09/16 06:28:48;;;;;;;;;;;9.10;99.90;;;;;;5110189;28;20275;-58
2022/09/16 06:31:17;;;;;;;;;;;9.10;99.90;;;;;;5092129;28;19930;-58
2022/09/16 06:33:45;;;;;;;;;;;9.10;99.90;;;;;;5099786;27;19925;-60
2022/09/16 06:36:14;;;;;;;;;;;9.20;99.90;;;;;;5089191;28;19931;-61
2022/09/16 06:38:42;;;;;;;;;;;9.30;99.90;;;;;;5086950;28;19958;-62
2022/09/16 06:41:10;;;;;;;;;;;9.40;99.90;;;;;;5111541;28;20377;-61
2022/09/16 06:43:37;;;;;;;;;;;9.50;99.90;;;;;;5111008;28;19923;-59
2022/09/16 06:46:09;;;;;;;;;;;9.60;99.90;;;;;;5093119;28;19923;-60
2022/09/16 06:48:36;;;;;;;;;;;9.70;99.90;;;;;;5109891;28;19931;-62
2022/09/16 06:51:05;;;;;;;;;;;9.80;99.90;;;;;;5092928;28;19924;-61
2022/09/16 06:53:32;;;;;;;;;;;9.90;99.90;;;;;;5105146;28;19955;-60
2022/09/16 06:56:00;;;;;;;;;;;10.00;99.90;;;;;;5090711;28;19931;-62
2022/09/16 06:58:30;;;;;;;;;;;10.10;99.90;;;;;;5092241;28;19928;-60
2022/09/16 07:00:58;;;;;;;;;;;10.20;99.90;;;;;;5090414;28;20395;-60
2022/09/16 07:03:25;;;;;;;;;;;10.30;99.90;;;;;;5081756;28;19928;-60
2022/09/16 07:06:00;;;;;;;;;;;10.30;99.90;;;;;;5100590;28;19924;-58
2022/09/16 07:08:28;;;;;;;;;;;10.40;99.90;;;;;;5098569;28;19924;-58
2022/09/16 07:10:56;;;;;;;;;;;10.40;99.90;;;;;;5101060;28;19924;-59
2022/09/16 07:13:24;;;;;;;;;;;10.40;99.90;;;;;;5088801;28;20406;-61
2022/09/16 07:15:52;;;;;;;;;;;10.40;99.90;;;;;;5106690;28;19946;-61
2022/09/16 07:18:39;;;;;;;;;;;10.40;99.90;;;;;;5104144;27;19931;-59
2022/09/16 07:21:09;;;;;;;;;;;10.30;99.90;;;;;;5106060;28;19927;-62
2022/09/16 07:23:37;;;;;;;;;;;10.30;99.90;;;;;;5102529;28;19934;-59
2022/09/16 07:26:07;;;;;;;;;;;10.30;99.90;;;;;;5107483;28;19923;-58
2022/09/16 07:28:35;;;;;;;;;;;10.30;99.90;;;;;;5105386;28;19928;-59
2022/09/16 07:31:04;;;;;;;;;;;10.30;99.90;;;;;;5087988;28;20410;-59
2022/09/16 07:33:34;;;;;;;;;;;10.30;99.90;;;;;;5085699;28;20271;-59
2022/09/16 07:36:04;;;;;;;;;;;10.30;99.90;;;;;;5109262;28;19924;-63
2022/09/16 07:38:31;;;;;;;;;;;10.40;99.90;;;;;;5067887;28;19924;-59
2022/09/16 07:41:15;;;;;;;;;;;10.40;99.90;;;;;;5103668;28;19938;-62
2022/09/16 07:43:43;;;;;;;;;;;10.40;99.90;;;;;;5091653;28;19924;-61
2022/09/16 07:46:11;;;;;;;;;;;10.40;99.90;;;;;;5110428;28;19924;-60
2022/09/16 07:48:39;;;;;;;;;;;10.50;99.90;;;;;;5109826;28;19924;-61
2022/09/16 07:51:11;;;;;;;;;;;10.60;99.90;;;;;;5108494;28;20299;-59
2022/09/16 07:53:39;;;;;;;;;;;10.60;99.90;;;;;;5091442;28;19939;-60
2022/09/16 07:56:06;;;;;;;;;;;10.60;99.90;;;;;;5110335;28;20176;-58
2022/09/16 07:58:33;;;;;;;;;;;10.70;99.90;;;;;;5109049;27;19924;-63
2022/09/16 08:01:01;;;;;;;;;;;10.80;99.90;;;;;;5107789;28;19930;-62
2022/09/16 08:03:31;;;;;;;;;;;10.80;99.90;;;;;;5109279;28;19934;-57
2022/09/16 08:06:00;;;;;;;;;;;10.90;99.90;;;;;;5108544;28;19930;-58
2022/09/16 08:08:28;;;;;;;;;;;10.90;99.90;;;;;;5106736;28;19923;-62
2022/09/16 08:10:56;;;;;;;;;;;11.00;99.90;;;;;;5109885;28;19923;-61
2022/09/16 08:13:25;;;;;;;;;;;11.00;99.90;;;;;;5109531;28;19955;-59
2022/09/16 08:15:52;;;;;;;;;;;11.10;99.90;;;;;;5074475;28;20375;-60
2022/09/16 08:18:20;;;;;;;;;;;11.20;99.90;;;;;;5109172;28;19924;-62
2022/09/16 08:20:48;;;;;;;;;;;11.20;99.90;;;;;;5109377;28;19924;-58
2022/09/16 08:23:15;;;;;;;;;;;11.30;99.90;;;;;;5105107;28;20386;-61
2022/09/16 08:25:43;;;;;;;;;;;11.30;99.90;;;;;;5091720;28;19955;-60
2022/09/16 08:28:11;;;;;;;;;;;11.30;99.90;;;;;;5119020;27;19923;-58
2022/09/16 08:30:38;;;;;;;;;;;11.40;99.90;;;;;;5111481;27;19930;-61
2022/09/16 08:33:06;;;;;;;;;;;11.40;99.90;;;;;;5107721;28;19935;-63
2022/09/16 08:35:33;;;;;;;;;;;11.50;99.90;;;;;;5089649;28;19924;-60
2022/09/16 08:38:01;;;;;;;;;;;11.50;99.90;;;;;;5082196;28;19935;-61
2022/09/16 08:40:32;;;;;;;;;;;11.60;99.90;;;;;;5106014;28;20371;-62
2022/09/16 08:43:20;;;;;;;;;;;11.60;99.90;;;;;;5104783;28;20406;-60
2022/09/16 08:45:57;;;;;;;;;;;11.70;99.90;;;;;;5070975;28;19924;-59
2022/09/16 08:48:35;;;;;;;;;;;11.80;99.90;;;;;;5082386;28;19923;-59
2022/09/16 08:51:04;;;;;;;;;;;11.80;99.90;;;;;;5108259;28;19951;-58
2022/09/16 08:54:01;;;;;;;;;;;11.90;99.90;;;;;;5100404;28;19935;-59
2022/09/16 08:56:33;;;;;;;;;;;11.90;99.90;;;;;;5097621;28;20326;-61
2022/09/16 08:59:03;;;;;;;;;;;11.90;99.90;;;;;;5107987;28;20302;-60
2022/09/16 09:01:35;;;;;;;;;;;12.00;99.90;;;;;;5106418;28;19931;-58
2022/09/16 09:04:03;;;;;;;;;;;12.00;99.90;;;;;;5107415;28;19935;-57
2022/09/16 09:06:30;;;;;;;;;;;12.10;99.90;;;;;;5109339;28;19950;-61
2022/09/16 09:09:16;;;;;;;;;;;12.20;99.90;;;;;;5095374;28;20433;-62
2022/09/16 09:11:49;;;;;;;;;;;12.20;99.90;;;;;;5088824;28;20685;-61
2022/09/16 09:14:36;;;;;;;;;;;12.40;99.90;;;;;;5106518;28;19924;-62
2022/09/16 09:17:23;;;;;;;;;;;12.50;99.90;;;;;;5108746;28;19923;-62
2022/09/16 09:20:05;;;;;;;;;;;12.60;99.90;;;;;;5112066;28;19930;-60
2022/09/16 09:22:49;;;;;;;;;;;12.60;99.90;;;;;;5111614;28;19931;-60
2022/09/16 09:25:20;;;;;;;;;;;14.30;99.90;;;;;;5108627;28;20391;-58
2022/09/16 09:27:53;;;;;;;;;;;12.90;99.90;;;;;;5078898;28;19923;-61
2022/09/16 09:30:22;;;;;;;;;;;13.00;99.90;;;;;;5122775;28;20298;-61
2022/09/16 09:32:58;;;;;;;;;;;13.10;99.90;;;;;;5110603;28;19946;-59
2022/09/16 09:35:29;;;;;;;;;;;13.20;99.90;;;;;;5129274;28;20331;-58
2022/09/16 09:38:15;;;;;;;;;;;13.20;99.90;;;;;;5117984;28;20406;-60
2022/09/16 09:40:49;;;;;;;;;;;13.40;99.90;;;;;;5104138;28;20390;-62
2022/09/16 09:43:19;;;;;;;;;;;13.60;99.90;;;;;;5107559;28;19931;-62
2022/09/16 09:45:49;;;;;;;;;;;13.80;99.90;;;;;;5107351;28;20295;-60
2022/09/16 09:48:22;;;;;;;;;;;14.00;99.90;;;;;;5118922;28;20379;-58
2022/09/16 09:50:50;;;;;;;;;;;14.10;99.90;;;;;;5108856;28;19923;-59
2022/09/16 09:53:31;;;;;;;;;;;14.20;99.90;;;;;;5103081;28;19928;-59
2022/09/16 09:56:03;;;;;;;;;;;14.20;99.90;;;;;;5088241;28;19931;-59
2022/09/16 09:58:30;;;;;;;;;;;14.20;99.90;;;;;;5103037;28;19930;-58
2022/09/16 10:00:58;;;;;;;;;;;14.20;99.90;;;;;;5107336;28;19950;-60
2022/09/16 10:03:27;;;;;;;;;;;14.30;99.90;;;;;;5099574;27;20087;-59
2022/09/16 10:05:54;;;;;;;;;;;14.30;99.90;;;;;;5115218;27;20279;-59
2022/09/16 10:08:28;;;;;;;;;;;14.50;99.90;;;;;;5105151;28;19924;-59
2022/09/16 10:10:58;;;;;;;;;;;14.60;99.90;;;;;;5091533;28;19928;-58
2022/09/16 10:13:28;;;;;;;;;;;14.70;99.90;;;;;;5103314;28;20379;-58
2022/09/16 10:16:06;;;;;;;;;;;15.00;99.90;;;;;;5110833;28;20317;-57
2022/09/16 10:18:34;;;;;;;;;;;15.10;99.90;;;;;;5124282;27;19923;-58
2022/09/16 10:21:07;;;;;;;;;;;15.30;99.90;;;;;;5132540;27;19927;-57
2022/09/16 10:23:34;;;;;;;;;;;15.40;99.90;;;;;;5113746;27;19928;-58
2022/09/16 10:26:06;;;;;;;;;;;15.40;99.90;;;;;;5091647;28;19932;-58
2022/09/16 10:28:34;;;;;;;;;;;15.30;99.90;;;;;;5104166;28;19928;-58
2022/09/16 10:31:01;;;;;;;;;;;15.30;99.90;;;;;;5112001;28;19928;-61
2022/09/16 10:33:31;;;;;;;;;;;15.40;99.90;;;;;;5092333;28;20303;-60
2022/09/16 10:36:00;;;;;;;;;;;15.50;99.90;;;;;;5111482;28;19935;-62
2022/09/16 10:38:39;;;;;;;;;;;15.60;99.90;;;;;;5088735;28;19935;-58
2022/09/16 10:41:08;;;;;;;;;;;15.50;99.70;;;;;;5101551;28;19931;-62
2022/09/16 10:43:37;;;;;;;;;;;15.30;99.20;;;;;;5106790;28;20283;-61
2022/09/16 10:46:05;;;;;;;;;;;15.10;99.50;;;;;;5093493;28;19927;-62
2022/09/16 10:48:33;;;;;;;;;;;15.00;99.50;;;;;;5105019;27;19930;-59
2022/09/16 10:51:02;;;;;;;;;;;14.90;99.70;;;;;;5131820;27;20255;-57
2022/09/16 10:53:33;;;;;;;;;;;15.00;99.60;;;;;;5116602;27;19923;-60
2022/09/16 10:56:18;;;;;;;;;;;15.10;99.90;;;;;;5091225;28;19924;-57
2022/09/16 10:58:45;;;;;;;;;;;15.40;99.90;;;;;;5104521;28;19931;-57
2022/09/16 11:01:16;;;;;;;;;;;15.60;99.90;;;;;;5110927;28;19928;-57
2022/09/16 11:03:54;;;;;;;;;;;15.60;98.20;;;;;;5112171;27;19924;-60
2022/09/16 11:06:34;;;;;;;;;;;15.50;96.60;;;;;;5111307;28;20327;-61
2022/09/16 11:09:08;;;;;;;;;;;15.50;97.50;;;;;;5101124;27;19935;-60
2022/09/16 11:11:45;;;;;;;;;;;15.50;97.40;;;;;;5099068;28;19930;-61
2022/09/16 11:14:38;;;;;;;;;;;15.60;97.50;;;;;;5107607;27;19932;-62
2022/09/16 11:17:26;;;;;;;;;;;15.80;96.80;;;;;;5109201;28;19923;-60
2022/09/16 11:20:00;;;;;;;;;;;16.00;96.40;;;;;;5113527;27;19923;-62
2022/09/16 11:22:47;;;;;;;;;;;16.30;96.60;;;;;;5126811;27;20287;-59
2022/09/16 11:25:41;;;;;;;;;;;16.50;96.00;;;;;;5090038;28;19928;-59
2022/09/16 11:28:32;;;;;;;;;;;16.60;96.50;;;;;;5108209;28;19924;-59
2022/09/16 11:31:08;;;;;;;;;;;16.90;95.70;;;;;;5110543;28;19934;-62
2022/09/16 11:33:49;;;;;;;;;;;17.00;95.70;;;;;;5097987;27;20200;-63
2022/09/16 11:36:31;;;;;;;;;;;17.10;95.60;;;;;;5089602;28;20225;-61
2022/09/16 11:39:02;;;;;;;;;;;17.30;95.10;;;;;;5108818;28;19927;-61
2022/09/16 11:41:33;;;;;;;;;;;17.40;94.00;;;;;;5107189;28;19927;-61
2022/09/16 11:44:14;;;;;;;;;;;17.50;94.30;;;;;;5109943;28;19934;-61
2022/09/16 11:46:51;;;;;;;;;;;17.60;94.20;;;;;;5110091;28;19946;-63
2022/09/16 11:49:22;;;;;;;;;;;17.80;93.30;;;;;;5109972;28;19950;-60
2022/09/16 11:51:52;;;;;;;;;;;17.90;93.10;;;;;;5110208;28;19931;-61
2022/09/16 11:54:28;;;;;;;;;;;17.90;92.90;;;;;;5109600;28;19923;-61
2022/09/16 11:56:57;;;;;;;;;;;17.70;92.40;;;;;;5103126;28;19924;-61
2022/09/16 11:59:31;;;;;;;;;;;17.80;92.00;;;;;;5107764;28;20370;-61
2022/09/16 12:02:01;;;;;;;;;;;18.10;92.60;;;;;;5110907;27;19951;-62
2022/09/16 12:04:49;;;;;;;;;;;18.00;90.70;;;;;;5113014;27;19924;-61
2022/09/16 12:07:17;;;;;;;;;;;17.80;91.60;;;;;;5056054;28;19923;-61
2022/09/16 12:10:03;;;;;;;;;;;18.10;92.60;;;;;;5107980;28;19930;-59
2022/09/16 12:12:36;;;;;;;;;;;18.30;91.90;;;;;;5101214;28;19924;-59
2022/09/16 12:15:18;;;;;;;;;;;18.60;91.40;;;;;;5118680;27;19924;-61
2022/09/16 12:17:58;;;;;;;;;;;18.60;90.50;;;;;;5108137;28;19924;-59
2022/09/16 12:20:35;;;;;;;;;;;18.90;91.20;;;;;;5108230;28;19954;-59
2022/09/16 12:23:13;;;;;;;;;;;19.30;89.70;;;;;;5112645;27;19924;-61
2022/09/16 12:25:54;;;;;;;;;;;19.50;89.20;;;;;;5106352;28;19930;-61
2022/09/16 12:28:36;;;;;;;;;;;19.80;86.70;;;;;;5102343;28;19930;-61
2022/09/16 12:31:09;;;;;;;;;;;20.10;85.00;;;;;;5109284;28;19928;-64
2022/09/16 12:33:49;;;;;;;;;;;20.40;81.80;;;;;;5107636;27;19930;-61
2022/09/16 12:36:19;;;;;;;;;;;20.70;84.80;;;;;;5104784;28;19935;-60
2022/09/16 12:38:50;;;;;;;;;;;21.30;83.10;;;;;;5107922;28;19924;-63
2022/09/16 12:41:36;;;;;;;;;;;21.60;79.00;;;;;;5090647;28;19928;-62
2022/09/16 12:44:06;;;;;;;;;;;21.90;78.30;;;;;;5097653;27;20383;-61
2022/09/16 12:46:56;;;;;;;;;;;21.60;75.70;;;;;;5123903;27;19931;-63
2022/09/16 12:49:30;;;;;;;;;;;21.10;76.80;;;;;;5107846;28;20393;-60
2022/09/16 12:52:16;;;;;;;;;;;20.50;76.60;;;;;;5107686;28;20326;-61
2022/09/16 12:55:07;;;;;;;;;;;20.10;80.00;;;;;;5104178;28;19928;-60
2022/09/16 12:57:47;;;;;;;;;;;20.20;80.30;;;;;;5105234;28;19923;-62
2022/09/16 13:00:19;;;;;;;;;;;20.20;79.40;;;;;;5109849;28;19923;-59
2022/09/16 13:02:53;;;;;;;;;;;19.90;77.70;;;;;;5111298;28;19923;-60
2022/09/16 13:05:24;;;;;;;;;;;19.50;79.00;;;;;;5080221;28;20265;-61
2022/09/16 13:07:57;;;;;;;;;;;19.10;79.80;;;;;;5095166;28;19931;-60
2022/09/16 13:10:30;;;;;;;;;;;18.70;81.20;;;;;;5089188;28;19924;-60
2022/09/16 13:13:22;;;;;;;;;;;18.50;81.60;;;;;;5109800;28;19924;-61
2022/09/16 13:15:54;;;;;;;;;;;18.10;81.60;;;;;;5108944;28;19935;-60
2022/09/16 13:18:26;;;;;;;;;;;17.70;83.10;;;;;;5108488;28;19939;-61
2022/09/16 13:20:58;;;;;;;;;;;17.50;83.20;;;;;;5108977;28;20417;-60
2022/09/16 13:23:33;;;;;;;;;;;17.70;88.30;;;;;;5094934;28;19924;-59
2022/09/16 13:26:06;;;;;;;;;;;18.40;86.90;;;;;;5107656;28;20375;-59
2022/09/16 13:28:36;;;;;;;;;;;19.30;84.90;;;;;;5106826;28;20371;-61
2022/09/16 13:31:14;;;;;;;;;;;20.00;80.90;;;;;;5107886;28;20374;-60
2022/09/16 13:34:05;;;;;;;;;;;20.50;78.00;;;;;;5108879;28;19931;-61
2022/09/16 13:36:33;;;;;;;;;;;20.90;75.20;;;;;;5094371;28;20363;-61
2022/09/16 13:39:05;;;;;;;;;;;21.50;76.50;;;;;;5111229;28;19928;-60
2022/09/16 13:41:38;;;;;;;;;;;22.00;73.50;;;;;;5111727;28;19924;-60
2022/09/16 13:44:26;;;;;;;;;;;22.50;71.90;;;;;;5114669;27;19934;-62
2022/09/16 13:46:54;;;;;;;;;;;22.50;70.50;;;;;;5090822;28;19934;-62
2022/09/16 13:49:24;;;;;;;;;;;22.00;68.70;;;;;;5092280;28;19927;-60
2022/09/16 13:51:51;;;;;;;;;;;21.40;69.20;;;;;;5084549;28;19924;-62
2022/09/16 13:54:27;;;;;;;;;;;20.90;70.00;;;;;;5101500;27;20838;-61
2022/09/16 13:57:12;;;;;;;;;;;20.50;71.10;;;;;;5082996;28;21880;-60
2022/09/16 13:59:42;;;;;;;;;;;20.10;71.80;;;;;;5097241;28;19932;-60
2022/09/16 14:02:10;;;;;;;;;;;19.70;73.00;;;;;;5108355;27;19927;-59
2022/09/16 14:04:56;;;;;;;;;;;19.50;74.20;;;;;;5102005;28;19923;-60
2022/09/16 14:07:42;;;;;;;;;;;19.30;73.80;;;;;;5086257;28;19924;-62
2022/09/16 14:10:29;;;;;;;;;;;19.10;75.80;;;;;;5102261;28;20398;-62
2022/09/16 14:12:57;;;;;;;;;;;18.80;75.40;;;;;;5112933;27;19934;-63
2022/09/16 14:15:24;;;;;;;;;;;18.60;75.40;;;;;;5104709;28;20366;-63
2022/09/16 14:17:58;;;;;;;;;;;18.20;75.50;;;;;;5104015;28;19931;-62
2022/09/16 14:20:26;;;;;;;;;;;17.90;75.30;;;;;;5108972;28;20287;-61
2022/09/16 14:23:00;;;;;;;;;;;17.60;76.90;;;;;;5112576;27;20382;-59
2022/09/16 14:25:30;;;;;;;;;;;17.40;76.50;;;;;;5086110;28;19924;-61
2022/09/16 14:28:16;;;;;;;;;;;17.30;76.40;;;;;;5079985;28;19931;-64
2022/09/16 14:30:47;;;;;;;;;;;17.30;76.50;;;;;;5107447;28;19928;-58
2022/09/16 14:33:16;;;;;;;;;;;17.20;77.00;;;;;;5102986;28;19923;-62
2022/09/16 14:35:45;;;;;;;;;;;17.10;77.50;;;;;;5106372;28;20326;-58
2022/09/16 14:38:14;;;;;;;;;;;17.00;77.20;;;;;;5110050;28;19924;-63
2022/09/16 14:41:05;;;;;;;;;;;16.80;77.40;;;;;;5108443;28;19923;-62
2022/09/16 14:43:32;;;;;;;;;;;16.80;78.50;;;;;;5088718;28;20331;-63
2022/09/16 14:46:00;;;;;;;;;;;16.60;78.20;;;;;;5109170;28;19931;-62